Time;durP1;ratioP1;P1;durP2;ratioP2;P2;SDS_P1;SDS_P2;PMS_P1;PMS_P2;Temp;Humidity;BMP_temperature;BMP_pressure;BME280_temperature;BME280_humidity;BME280_pressure;Samples;Min_cycle;Max_cycle;Signal;HPM_P1;HPM_P2
2022/04/26 03:36:22;;;;;;;16.97;8.70;;;;;;;;;;5081450;28;20280;-66
2022/04/26 03:38:48;;;;;;;13.67;7.90;;;;;;;;;;5081781;28;20180;-67
2022/04/26 03:41:14;;;;;;;16.43;8.40;;;;;;;;;;5088812;28;20196;-67
2022/04/26 03:43:40;;;;;;;15.10;8.33;;;;;;;;;;5084457;28;20290;-67
2022/04/26 03:46:06;;;;;;;27.83;9.53;;;;;;;;;;5080265;28;20222;-67
2022/04/26 03:48:31;;;;;;;23.30;9.50;;;;;;;;;;5086731;28;20240;-67
2022/04/26 03:50:57;;;;;;;19.87;8.83;;;;;;;;;;5078936;28;20200;-68
2022/04/26 03:53:23;;;;;;;21.97;9.33;;;;;;;;;;5084558;28;20181;-67
2022/04/26 03:55:48;;;;;;;21.07;9.23;;;;;;;;;;5087570;28;20290;-67
2022/04/26 03:58:13;;;;;;;20.73;9.03;;;;;;;;;;5088606;28;20534;-66
2022/04/26 04:00:39;;;;;;;18.13;10.00;;;;;;;;;;5083955;28;20196;-66
2022/04/26 04:03:04;;;;;;;17.93;9.77;;;;;;;;;;5088520;28;20254;-66
2022/04/26 04:05:30;;;;;;;20.90;9.93;;;;;;;;;;5089162;28;20180;-65
2022/04/26 04:07:55;;;;;;;18.33;9.20;;;;;;;;;;5086853;28;20215;-65
2022/04/26 04:10:21;;;;;;;22.10;10.10;;;;;;;;;;5071363;28;20184;-66
2022/04/26 04:12:46;;;;;;;16.37;9.07;;;;;;;;;;5082475;28;20184;-66
2022/04/26 04:15:11;;;;;;;21.87;9.80;;;;;;;;;;5089684;28;20176;-66
2022/04/26 04:17:37;;;;;;;22.37;9.47;;;;;;;;;;5087148;28;20183;-66
2022/04/26 04:20:03;;;;;;;20.60;10.90;;;;;;;;;;5088859;28;20624;-67
2022/04/26 04:22:28;;;;;;;22.37;9.47;;;;;;;;;;5074124;28;20184;-66
2022/04/26 04:24:54;;;;;;;22.60;10.70;;;;;;;;;;5075402;28;20627;-66
2022/04/26 04:27:19;;;;;;;21.80;10.40;;;;;;;;;;5085161;28;20597;-66
2022/04/26 04:29:44;;;;;;;24.43;9.87;;;;;;;;;;5083627;28;20321;-66
2022/04/26 04:32:10;;;;;;;19.07;10.10;;;;;;;;;;5084178;28;20219;-66
2022/04/26 04:34:36;;;;;;;16.67;9.60;;;;;;;;;;5087482;28;20196;-66
2022/04/26 04:37:01;;;;;;;18.60;10.23;;;;;;;;;;5088274;28;20186;-66
2022/04/26 04:39:27;;;;;;;21.07;10.57;;;;;;;;;;5081121;28;20231;-67
2022/04/26 04:41:53;;;;;;;22.53;10.63;;;;;;;;;;5083402;28;20196;-66
2022/04/26 04:44:19;;;;;;;23.77;11.27;;;;;;;;;;5074224;28;20662;-67
2022/04/26 04:46:45;;;;;;;22.10;10.73;;;;;;;;;;5076558;28;20274;-67
2022/04/26 04:49:10;;;;;;;17.23;10.53;;;;;;;;;;5079223;28;20553;-67
2022/04/26 04:51:36;;;;;;;17.80;10.20;;;;;;;;;;5083707;28;20199;-67
2022/04/26 04:54:04;;;;;;;19.90;11.07;;;;;;;;;;5085797;28;20210;-67
2022/04/26 04:56:30;;;;;;;23.70;10.97;;;;;;;;;;5084332;28;20195;-67
2022/04/26 04:58:55;;;;;;;23.13;12.43;;;;;;;;;;5086480;28;20184;-67
2022/04/26 05:01:21;;;;;;;23.40;11.13;;;;;;;;;;5085000;28;20283;-67
2022/04/26 05:03:46;;;;;;;21.67;11.83;;;;;;;;;;5085984;28;20244;-66
2022/04/26 05:06:14;;;;;;;20.33;11.00;;;;;;;;;;5084257;28;20236;-66
2022/04/26 05:08:40;;;;;;;25.27;12.00;;;;;;;;;;5087407;28;20233;-66
2022/04/26 05:11:06;;;;;;;25.10;11.77;;;;;;;;;;5083650;28;20188;-66
2022/04/26 05:13:31;;;;;;;24.67;11.73;;;;;;;;;;5083721;28;20549;-67
2022/04/26 05:15:57;;;;;;;28.13;12.73;;;;;;;;;;5086081;28;20259;-67
2022/04/26 05:18:22;;;;;;;27.87;13.30;;;;;;;;;;5085715;28;20176;-67
2022/04/26 05:20:47;;;;;;;26.30;13.30;;;;;;;;;;5081989;28;20648;-66
2022/04/26 05:25:56;;;;;;;20.57;12.13;;;;;;;;;;5076167;28;20246;-68
2022/04/26 05:28:22;;;;;;;26.40;13.70;;;;;;;;;;5094618;28;20208;-67
2022/04/26 05:30:47;;;;;;;20.90;12.10;;;;;;;;;;5083373;28;20192;-67
2022/04/26 05:33:13;;;;;;;20.20;12.20;;;;;;;;;;5086221;28;20207;-67
2022/04/26 05:35:38;;;;;;;22.73;11.93;;;;;;;;;;5084594;28;20336;-70
2022/04/26 05:38:04;;;;;;;24.90;13.03;;;;;;;;;;5084113;28;20224;-68
2022/04/26 05:40:29;;;;;;;20.13;12.37;;;;;;;;;;5086854;28;20301;-68
2022/04/26 05:42:54;;;;;;;25.00;13.13;;;;;;;;;;5084922;28;20184;-67
2022/04/26 05:45:21;;;;;;;22.50;12.63;;;;;;;;;;5083996;28;20550;-67
2022/04/26 05:47:46;;;;;;;29.00;12.53;;;;;;;;;;5080260;28;20420;-67
2022/04/26 05:50:12;;;;;;;26.53;12.33;;;;;;;;;;5082278;28;20191;-68
2022/04/26 05:52:37;;;;;;;25.03;12.60;;;;;;;;;;5082251;28;20180;-68
2022/04/26 05:55:04;;;;;;;24.73;13.00;;;;;;;;;;5080236;28;20192;-67
2022/04/26 05:57:30;;;;;;;19.87;12.10;;;;;;;;;;5084732;28;20191;-68
2022/04/26 05:59:56;;;;;;;24.63;13.27;;;;;;;;;;5083533;28;20763;-68
2022/04/26 06:02:21;;;;;;;25.63;11.93;;;;;;;;;;5079865;28;20591;-68
2022/04/26 06:04:47;;;;;;;25.17;13.13;;;;;;;;;;5087074;28;20184;-68
2022/04/26 06:07:12;;;;;;;27.10;12.23;;;;;;;;;;5083419;28;20233;-66
2022/04/26 06:09:38;;;;;;;20.63;11.53;;;;;;;;;;5085689;28;20380;-67
2022/04/26 06:12:04;;;;;;;24.53;11.70;;;;;;;;;;5084642;28;20188;-67
2022/04/26 06:14:30;;;;;;;22.93;11.73;;;;;;;;;;5084674;28;20274;-67
2022/04/26 06:16:55;;;;;;;20.33;11.67;;;;;;;;;;5082600;28;20255;-68
2022/04/26 06:19:20;;;;;;;21.80;11.53;;;;;;;;;;5078049;28;20675;-67
2022/04/26 06:21:46;;;;;;;21.93;11.20;;;;;;;;;;5080411;28;20200;-67
2022/04/26 06:24:11;;;;;;;21.13;10.47;;;;;;;;;;5082350;28;20180;-69
2022/04/26 06:26:37;;;;;;;23.20;10.87;;;;;;;;;;5079004;28;20195;-67
2022/04/26 06:29:02;;;;;;;24.97;10.23;;;;;;;;;;5080674;28;20190;-67
2022/04/26 06:31:27;;;;;;;18.58;10.45;;;;;;;;;;5082274;28;20630;-67
2022/04/26 06:33:53;;;;;;;20.83;10.30;;;;;;;;;;5081476;28;20183;-67
2022/04/26 06:36:18;;;;;;;24.92;9.32;;;;;;;;;;5080533;28;20184;-67
2022/04/26 06:38:43;;;;;;;22.73;10.00;;;;;;;;;;5084445;28;20204;-67
2022/04/26 06:41:09;;;;;;;20.52;9.25;;;;;;;;;;5087103;28;20237;-67
2022/04/26 06:43:34;;;;;;;18.88;8.80;;;;;;;;;;5089989;28;20500;-66
2022/04/26 06:46:01;;;;;;;14.68;8.73;;;;;;;;;;5087240;28;20450;-67
2022/04/26 06:48:27;;;;;;;20.42;8.48;;;;;;;;;;5087153;28;20204;-66
2022/04/26 06:50:56;;;;;;;17.95;8.23;;;;;;;;;;5081171;28;20229;-66
2022/04/26 06:53:21;;;;;;;17.65;8.93;;;;;;;;;;5086680;28;20336;-67
2022/04/26 06:55:47;;;;;;;18.33;7.72;;;;;;;;;;5087603;28;20192;-67
2022/04/26 06:58:12;;;;;;;15.50;7.22;;;;;;;;;;5088872;28;20253;-69
2022/04/26 07:00:37;;;;;;;14.95;7.43;;;;;;;;;;5086796;28;20463;-67
2022/04/26 07:03:03;;;;;;;23.13;7.78;;;;;;;;;;5085429;28;20271;-67
2022/04/26 07:05:29;;;;;;;15.57;7.43;;;;;;;;;;5084744;28;20180;-67
2022/04/26 07:07:54;;;;;;;19.15;7.57;;;;;;;;;;5084824;28;20214;-67
2022/04/26 07:10:21;;;;;;;12.85;7.60;;;;;;;;;;5088693;28;20263;-66
2022/04/26 07:12:47;;;;;;;19.20;7.00;;;;;;;;;;5086861;28;20220;-66
2022/04/26 07:15:12;;;;;;;12.27;6.10;;;;;;;;;;5090479;28;20624;-67
2022/04/26 07:17:40;;;;;;;18.48;6.82;;;;;;;;;;5086024;28;20188;-69
2022/04/26 07:20:06;;;;;;;16.38;7.63;;;;;;;;;;5086882;28;20192;-67
2022/04/26 07:22:32;;;;;;;15.15;6.97;;;;;;;;;;5081803;28;20187;-66
2022/04/26 07:24:57;;;;;;;17.85;7.32;;;;;;;;;;5085125;28;20250;-67
2022/04/26 07:27:23;;;;;;;16.00;7.15;;;;;;;;;;5082051;28;20208;-66
2022/04/26 07:29:49;;;;;;;11.82;5.78;;;;;;;;;;5087446;28;20259;-67
2022/04/26 07:32:14;;;;;;;9.38;5.93;;;;;;;;;;5086760;28;20371;-66
2022/04/26 07:34:40;;;;;;;16.63;7.40;;;;;;;;;;5084502;28;20707;-66
2022/04/26 07:37:06;;;;;;;15.60;6.68;;;;;;;;;;5085648;28;20284;-66
2022/04/26 07:39:34;;;;;;;12.40;5.85;;;;;;;;;;5087823;28;20510;-67
2022/04/26 07:42:00;;;;;;;11.63;6.40;;;;;;;;;;5084461;28;20180;-67
2022/04/26 07:44:25;;;;;;;13.07;5.82;;;;;;;;;;5090231;28;20667;-66
2022/04/26 07:46:53;;;;;;;15.55;6.32;;;;;;;;;;5088496;28;20180;-67
2022/04/26 07:49:20;;;;;;;10.82;5.57;;;;;;;;;;5084755;28;20180;-67
2022/04/26 07:51:47;;;;;;;13.80;5.88;;;;;;;;;;5086439;28;20196;-66
2022/04/26 07:54:12;;;;;;;13.73;6.97;;;;;;;;;;5087458;28;20180;-67
2022/04/26 07:56:38;;;;;;;17.27;6.55;;;;;;;;;;4381701;28;10000713;-67
2022/04/26 07:59:04;;;;;;;11.75;6.38;;;;;;;;;;5084529;28;20585;-68
2022/04/26 08:01:35;;;;;;;17.35;6.20;;;;;;;;;;5082427;28;20640;-66
2022/04/26 08:04:00;;;;;;;12.70;6.85;;;;;;;;;;5081459;28;20268;-68
2022/04/26 08:06:26;;;;;;;11.07;5.80;;;;;;;;;;5084939;28;20315;-68
2022/04/26 08:08:54;;;;;;;10.10;5.65;;;;;;;;;;5076741;28;20216;-67
2022/04/26 08:11:20;;;;;;;10.15;5.80;;;;;;;;;;5085621;28;20195;-67
2022/04/26 08:13:46;;;;;;;14.52;6.68;;;;;;;;;;5080199;28;20193;-67
2022/04/26 08:16:11;;;;;;;15.13;6.30;;;;;;;;;;5083154;28;20180;-67
2022/04/26 08:18:37;;;;;;;13.18;5.55;;;;;;;;;;5078918;28;20180;-67
2022/04/26 08:21:05;;;;;;;10.25;5.65;;;;;;;;;;5078502;28;20222;-68
2022/04/26 08:23:31;;;;;;;12.88;5.82;;;;;;;;;;5081062;28;20191;-67
2022/04/26 08:28:41;;;;;;;12.50;5.95;;;;;;;;;;5081625;28;20227;-68
2022/04/26 08:31:06;;;;;;;12.30;6.03;;;;;;;;;;5083561;28;20208;-68
2022/04/26 08:33:34;;;;;;;16.90;6.30;;;;;;;;;;5082589;28;20215;-66
2022/04/26 08:36:00;;;;;;;15.65;6.05;;;;;;;;;;5083426;28;20176;-66
2022/04/26 08:38:25;;;;;;;8.85;5.20;;;;;;;;;;5081289;28;20686;-67
2022/04/26 08:40:50;;;;;;;12.57;5.60;;;;;;;;;;5081193;28;20188;-66
2022/04/26 08:43:16;;;;;;;10.88;5.55;;;;;;;;;;5085021;28;20202;-67
2022/04/26 08:45:44;;;;;;;13.43;5.68;;;;;;;;;;5083700;28;20184;-67
2022/04/26 08:51:00;;;;;;;10.45;5.22;;;;;;;;;;5082032;28;20423;-67
2022/04/26 08:53:27;;;;;;;12.77;6.00;;;;;;;;;;5084530;28;20176;-66
2022/04/26 08:55:55;;;;;;;12.55;5.88;;;;;;;;;;5078702;28;20192;-67
2022/04/26 08:58:22;;;;;;;12.88;6.10;;;;;;;;;;5080054;28;20180;-66
2022/04/26 09:01:13;;;;;;;16.75;6.03;;;;;;;;;;5080225;28;20217;-67
2022/04/26 09:03:54;;;;;;;11.23;5.57;;;;;;;;;;5078537;28;20241;-67
2022/04/26 09:06:33;;;;;;;11.93;5.93;;;;;;;;;;5082613;28;20231;-66
2022/04/26 09:09:14;;;;;;;9.18;5.70;;;;;;;;;;5079455;28;20291;-67
2022/04/26 09:11:40;;;;;;;12.07;5.43;;;;;;;;;;5081482;28;20191;-69
2022/04/26 09:14:08;;;;;;;14.35;5.50;;;;;;;;;;5080325;28;20204;-68
2022/04/26 09:16:35;;;;;;;12.63;5.35;;;;;;;;;;5082695;28;20590;-68
2022/04/26 09:19:06;;;;;;;11.85;5.22;;;;;;;;;;5081832;28;20186;-67
2022/04/26 09:21:32;;;;;;;9.50;5.07;;;;;;;;;;5084312;28;20176;-67
2022/04/26 09:24:03;;;;;;;10.75;4.90;;;;;;;;;;5080356;28;20206;-66
2022/04/26 09:26:37;;;;;;;11.55;5.35;;;;;;;;;;5081333;28;20206;-66
2022/04/26 09:29:05;;;;;;;12.10;6.15;;;;;;;;;;5077821;28;20211;-67
2022/04/26 09:31:38;;;;;;;10.85;5.30;;;;;;;;;;5082098;28;20232;-67
2022/04/26 09:34:13;;;;;;;11.55;5.25;;;;;;;;;;5078974;28;20184;-68
2022/04/26 09:36:44;;;;;;;8.13;4.78;;;;;;;;;;5081474;28;20266;-68
2022/04/26 09:39:15;;;;;;;12.35;5.05;;;;;;;;;;5079782;28;20191;-67
2022/04/26 09:41:48;;;;;;;10.10;4.40;;;;;;;;;;5081479;28;20690;-68
2022/04/26 09:44:13;;;;;;;8.18;4.65;;;;;;;;;;5080163;28;20724;-68
2022/04/26 09:46:47;;;;;;;11.48;4.82;;;;;;;;;;5074803;28;20507;-68
2022/04/26 09:49:17;;;;;;;11.98;4.47;;;;;;;;;;5077556;28;20212;-67
2022/04/26 09:51:43;;;;;;;10.82;4.60;;;;;;;;;;5086258;28;20184;-67
2022/04/26 09:54:09;;;;;;;7.57;4.28;;;;;;;;;;5083524;28;20529;-67
2022/04/26 09:56:34;;;;;;;7.53;4.45;;;;;;;;;;5083122;28;20188;-67
2022/04/26 09:59:03;;;;;;;8.82;4.03;;;;;;;;;;5071937;28;20184;-68
2022/04/26 10:01:41;;;;;;;8.27;4.10;;;;;;;;;;5088090;28;20180;-67
2022/04/26 10:04:08;;;;;;;6.93;4.25;;;;;;;;;;5081555;28;20626;-67
2022/04/26 10:06:38;;;;;;;8.77;3.88;;;;;;;;;;5084709;28;20227;-68
2022/04/26 10:09:06;;;;;;;10.05;4.13;;;;;;;;;;5083532;28;20595;-67
2022/04/26 10:11:32;;;;;;;8.63;3.67;;;;;;;;;;5085994;28;20183;-67
2022/04/26 10:14:00;;;;;;;9.85;4.05;;;;;;;;;;5083410;28;20251;-67
2022/04/26 10:16:25;;;;;;;9.23;3.80;;;;;;;;;;5082655;28;20180;-67
2022/04/26 10:19:00;;;;;;;6.03;3.13;;;;;;;;;;5083788;28;20182;-67
2022/04/26 10:21:26;;;;;;;12.13;4.30;;;;;;;;;;5084018;28;20172;-67
2022/04/26 10:23:51;;;;;;;8.95;5.47;;;;;;;;;;5080800;28;20191;-67
2022/04/26 10:26:23;;;;;;;8.57;3.95;;;;;;;;;;5085867;28;20934;-67
2022/04/26 10:28:59;;;;;;;8.77;3.78;;;;;;;;;;5080968;28;20200;-67
2022/04/26 10:32:01;;;;;;;6.18;3.45;;;;;;;;;;5083933;28;20694;-68
2022/04/26 10:34:29;;;;;;;6.63;3.58;;;;;;;;;;5008938;28;20330;-67
2022/04/26 10:37:01;;;;;;;9.45;3.60;;;;;;;;;;5070082;28;20199;-67
2022/04/26 10:39:30;;;;;;;7.65;3.50;;;;;;;;;;5083277;28;20176;-68
2022/04/26 10:41:56;;;;;;;7.55;3.60;;;;;;;;;;5086590;28;20195;-67
2022/04/26 10:44:23;;;;;;;7.53;3.70;;;;;;;;;;5084429;28;20184;-67
2022/04/26 10:47:02;;;;;;;10.50;3.28;;;;;;;;;;5086080;28;20191;-74
2022/04/26 10:49:33;;;;;;;8.10;3.60;;;;;;;;;;5083257;28;20214;-67
2022/04/26 10:52:25;;;;;;;9.80;3.72;;;;;;;;;;5083015;28;20176;-68
2022/04/26 10:54:58;;;;;;;7.15;4.05;;;;;;;;;;5077213;28;20587;-68
2022/04/26 10:57:26;;;;;;;5.65;3.45;;;;;;;;;;5082982;28;20180;-68
2022/04/26 10:59:56;;;;;;;9.07;3.95;;;;;;;;;;5083521;28;20188;-68
2022/04/26 11:02:23;;;;;;;9.80;3.88;;;;;;;;;;5084400;28;20200;-70
2022/04/26 11:05:16;;;;;;;7.57;3.90;;;;;;;;;;5082028;28;20245;-66
2022/04/26 11:07:47;;;;;;;7.47;3.30;;;;;;;;;;5084404;28;20576;-66
2022/04/26 11:10:15;;;;;;;6.60;3.40;;;;;;;;;;5084199;28;20189;-67
2022/04/26 11:12:40;;;;;;;7.30;3.35;;;;;;;;;;5082719;28;20269;-67
2022/04/26 11:15:12;;;;;;;9.98;3.35;;;;;;;;;;5085427;28;20260;-67
2022/04/26 11:17:39;;;;;;;6.40;3.55;;;;;;;;;;5082270;28;20609;-67
2022/04/26 11:20:09;;;;;;;9.93;3.47;;;;;;;;;;5080948;28;20187;-67
2022/04/26 11:22:45;;;;;;;7.43;3.28;;;;;;;;;;5081119;28;20179;-67
2022/04/26 11:28:09;;;;;;;9.45;3.17;;;;;;;;;;5083339;28;20269;-67
2022/04/26 11:30:48;;;;;;;5.80;2.97;;;;;;;;;;5085055;28;20692;-67
2022/04/26 11:33:19;;;;;;;8.95;4.28;;;;;;;;;;5082769;28;20195;-66
2022/04/26 11:35:49;;;;;;;8.23;2.97;;;;;;;;;;5084887;28;20208;-67
2022/04/26 11:38:16;;;;;;;6.05;3.10;;;;;;;;;;5089494;28;20210;-67
2022/04/26 11:40:50;;;;;;;6.22;3.20;;;;;;;;;;5085820;28;20237;-67
2022/04/26 11:43:20;;;;;;;5.25;3.35;;;;;;;;;;5087050;28;20218;-67
2022/04/26 11:45:53;;;;;;;7.97;3.22;;;;;;;;;;5082714;28;20219;-66
2022/04/26 11:48:21;;;;;;;5.70;2.85;;;;;;;;;;5084031;28;20205;-67
2022/04/26 11:50:51;;;;;;;6.53;2.85;;;;;;;;;;5087714;28;20260;-66
2022/04/26 11:53:22;;;;;;;7.90;3.42;;;;;;;;;;5087712;28;20225;-67
2022/04/26 11:55:56;;;;;;;7.15;2.95;;;;;;;;;;5084486;28;20666;-67
2022/04/26 11:58:22;;;;;;;5.07;2.75;;;;;;;;;;5086711;28;20188;-67
2022/04/26 12:01:07;;;;;;;10.05;3.00;;;;;;;;;;5078754;28;20211;-66
2022/04/26 12:03:38;;;;;;;6.38;3.35;;;;;;;;;;5078351;28;20184;-66
2022/04/26 12:06:09;;;;;;;5.93;3.30;;;;;;;;;;5087742;28;20576;-67
2022/04/26 12:08:38;;;;;;;7.93;3.53;;;;;;;;;;5086206;28;20221;-67
2022/04/26 12:11:18;;;;;;;5.72;3.03;;;;;;;;;;4382666;28;10000404;-67
2022/04/26 12:13:45;;;;;;;4.75;3.10;;;;;;;;;;5083047;28;20184;-67
2022/04/26 12:16:20;;;;;;;4.97;3.17;;;;;;;;;;5082497;28;20241;-67
2022/04/26 12:18:54;;;;;;;10.38;3.30;;;;;;;;;;5086198;28;20682;-67
2022/04/26 12:21:20;;;;;;;6.15;3.33;;;;;;;;;;5082082;28;20252;-67
2022/04/26 12:23:46;;;;;;;9.07;3.25;;;;;;;;;;5080996;28;20208;-67
2022/04/26 12:26:11;;;;;;;6.43;3.00;;;;;;;;;;5084392;28;20211;-67
2022/04/26 12:28:49;;;;;;;5.53;3.53;;;;;;;;;;5083931;28;20200;-67
2022/04/26 12:31:26;;;;;;;5.43;3.28;;;;;;;;;;5082882;28;20217;-68
2022/04/26 12:34:15;;;;;;;7.43;3.03;;;;;;;;;;5081374;28;20183;-67
2022/04/26 12:37:00;;;;;;;3.58;3.00;;;;;;;;;;5080750;28;20268;-67
2022/04/26 12:39:48;;;;;;;8.88;3.00;;;;;;;;;;5081104;28;20180;-69
2022/04/26 12:42:16;;;;;;;4.53;2.50;;;;;;;;;;5078500;28;20196;-66
2022/04/26 12:44:49;;;;;;;5.82;2.80;;;;;;;;;;5081025;28;20188;-66
2022/04/26 12:52:50;;;;;;;9.05;3.28;;;;;;;;;;5082717;28;20663;-67
2022/04/26 12:55:26;;;;;;;6.38;3.20;;;;;;;;;;5081172;28;20176;-67
2022/04/26 12:57:54;;;;;;;6.25;2.90;;;;;;;;;;5076286;28;20178;-67
2022/04/26 13:00:22;;;;;;;7.53;3.08;;;;;;;;;;5081941;28;20529;-67
2022/04/26 13:02:52;;;;;;;7.68;3.00;;;;;;;;;;5082119;28;20264;-67
2022/04/26 13:05:19;;;;;;;5.72;2.85;;;;;;;;;;5082219;28;20192;-67
2022/04/26 13:07:46;;;;;;;5.78;3.00;;;;;;;;;;5083691;28;20681;-67
2022/04/26 13:10:12;;;;;;;6.53;2.45;;;;;;;;;;5081599;28;20173;-68
2022/04/26 13:12:38;;;;;;;5.78;3.13;;;;;;;;;;5084802;28;20271;-67
2022/04/26 13:15:05;;;;;;;3.97;2.80;;;;;;;;;;5079206;28;20574;-68
2022/04/26 13:17:30;;;;;;;5.53;3.05;;;;;;;;;;5077632;28;20531;-68
2022/04/26 13:19:55;;;;;;;5.38;2.78;;;;;;;;;;5084342;28;20514;-67
2022/04/26 13:22:22;;;;;;;6.10;3.35;;;;;;;;;;5077659;28;20250;-66
2022/04/26 13:24:49;;;;;;;3.35;2.38;;;;;;;;;;5081294;28;20179;-67
2022/04/26 13:27:16;;;;;;;7.00;2.80;;;;;;;;;;5087170;28;20368;-66
2022/04/26 13:29:41;;;;;;;6.00;2.70;;;;;;;;;;5086598;28;20646;-66
2022/04/26 13:32:07;;;;;;;4.63;2.47;;;;;;;;;;5086303;28;20287;-67
2022/04/26 13:34:33;;;;;;;8.90;2.63;;;;;;;;;;5084629;28;20188;-66
2022/04/26 13:36:58;;;;;;;5.53;2.90;;;;;;;;;;5080285;28;20192;-67
2022/04/26 13:39:24;;;;;;;5.82;2.47;;;;;;;;;;5082875;28;20172;-67
2022/04/26 13:41:52;;;;;;;9.82;2.70;;;;;;;;;;5085812;28;20237;-67
2022/04/26 13:44:19;;;;;;;4.90;2.75;;;;;;;;;;5085618;28;20579;-66
2022/04/26 13:46:48;;;;;;;9.27;2.80;;;;;;;;;;5085071;28;20192;-66
2022/04/26 13:49:13;;;;;;;4.65;2.78;;;;;;;;;;5082698;28;20207;-67
2022/04/26 13:51:39;;;;;;;7.90;2.65;;;;;;;;;;5085071;28;20294;-67
2022/04/26 13:54:04;;;;;;;4.72;2.50;;;;;;;;;;5085754;28;20225;-66
2022/04/26 13:56:30;;;;;;;5.40;2.90;;;;;;;;;;5086559;28;20302;-67
2022/04/26 13:58:55;;;;;;;5.40;2.53;;;;;;;;;;5070351;28;20185;-67
2022/04/26 14:01:22;;;;;;;5.22;2.63;;;;;;;;;;5074352;28;20180;-66
2022/04/26 14:03:49;;;;;;;4.20;2.90;;;;;;;;;;5083841;28;20628;-67
2022/04/26 14:06:18;;;;;;;5.82;3.10;;;;;;;;;;5086214;28;20219;-66
2022/04/26 14:08:47;;;;;;;4.93;2.65;;;;;;;;;;5077313;28;20212;-66
2022/04/26 14:11:13;;;;;;;6.30;2.30;;;;;;;;;;5087329;28;20184;-66
2022/04/26 14:21:47;;;;;;;4.75;2.40;;;;;;;;;;5086587;28;20549;-66
2022/04/26 14:21:51;;;;;;;4.28;2.30;;;;;;;;;;5085974;28;20292;-67
2022/04/26 14:24:17;;;;;;;8.15;2.17;;;;;;;;;;5086129;28;20271;-66
2022/04/26 14:26:42;;;;;;;4.38;1.92;;;;;;;;;;5082125;28;20184;-65
2022/04/26 14:29:08;;;;;;;7.18;2.63;;;;;;;;;;5086028;28;20207;-66
2022/04/26 14:31:35;;;;;;;5.43;2.38;;;;;;;;;;5084471;28;20619;-66
2022/04/26 14:34:01;;;;;;;6.28;2.60;;;;;;;;;;5085091;28;20195;-66
2022/04/26 14:36:26;;;;;;;3.47;2.45;;;;;;;;;;5073160;28;20176;-67
2022/04/26 14:38:52;;;;;;;4.85;2.20;;;;;;;;;;5085233;28;20186;-67
2022/04/26 14:41:17;;;;;;;5.03;2.20;;;;;;;;;;5085550;28;20615;-67
2022/04/26 14:43:42;;;;;;;5.55;2.03;;;;;;;;;;5084821;28;20237;-66
2022/04/26 14:46:07;;;;;;;5.90;2.35;;;;;;;;;;5082218;28;20193;-67
2022/04/26 14:48:33;;;;;;;5.95;2.40;;;;;;;;;;5079146;28;20345;-67
2022/04/26 14:50:58;;;;;;;4.38;2.50;;;;;;;;;;5085899;28;20232;-67
2022/04/26 14:53:24;;;;;;;5.30;2.30;;;;;;;;;;5086974;28;20248;-67
2022/04/26 14:55:49;;;;;;;6.40;2.60;;;;;;;;;;5081976;28;20496;-66
2022/04/26 14:58:15;;;;;;;5.13;2.40;;;;;;;;;;5086961;28;20223;-67
2022/04/26 15:00:41;;;;;;;4.80;2.15;;;;;;;;;;5076930;28;20326;-67
2022/04/26 15:03:06;;;;;;;4.63;2.10;;;;;;;;;;5089513;28;20249;-67
2022/04/26 15:05:32;;;;;;;5.13;2.28;;;;;;;;;;5090868;28;20196;-67
2022/04/26 15:10:41;;;;;;;6.63;2.38;;;;;;;;;;5089331;28;20191;-67
2022/04/26 15:18:35;;;;;;;3.47;1.88;;;;;;;;;;5088720;28;20574;-69
2022/04/26 15:21:03;;;;;;;4.53;1.70;;;;;;;;;;5089694;28;20310;-66
2022/04/26 15:23:28;;;;;;;4.85;2.28;;;;;;;;;;5090054;28;20184;-66
2022/04/26 15:25:55;;;;;;;4.43;2.35;;;;;;;;;;5087902;28;20184;-66
2022/04/26 15:28:22;;;;;;;4.30;2.25;;;;;;;;;;5088286;28;20226;-66
2022/04/26 15:30:49;;;;;;;5.85;2.42;;;;;;;;;;5088467;28;20230;-67
2022/04/26 15:33:15;;;;;;;3.97;2.13;;;;;;;;;;5089267;28;20666;-66
2022/04/26 15:35:42;;;;;;;3.90;1.83;;;;;;;;;;5085601;28;20184;-66
2022/04/26 15:38:12;;;;;;;3.03;2.20;;;;;;;;;;5088190;28;20577;-67
2022/04/26 15:40:39;;;;;;;3.38;2.17;;;;;;;;;;5083659;28;20206;-67
2022/04/26 15:43:05;;;;;;;3.85;2.05;;;;;;;;;;5085768;28;20184;-67
2022/04/26 15:45:31;;;;;;;3.63;2.00;;;;;;;;;;5080938;28;20214;-67
2022/04/26 15:47:57;;;;;;;3.85;2.03;;;;;;;;;;5078097;28;20200;-67
2022/04/26 15:50:23;;;;;;;4.45;2.00;;;;;;;;;;5084070;28;20181;-67
2022/04/26 15:52:49;;;;;;;5.72;2.13;;;;;;;;;;5085943;28;20564;-66
2022/04/26 15:55:14;;;;;;;3.08;2.00;;;;;;;;;;5085930;28;20199;-67
2022/04/26 15:57:42;;;;;;;4.68;2.10;;;;;;;;;;5090303;28;20179;-66
2022/04/26 16:00:08;;;;;;;5.35;2.22;;;;;;;;;;5089580;28;20251;-67
2022/04/26 16:02:33;;;;;;;4.45;2.13;;;;;;;;;;5086487;28;20188;-67
2022/04/26 16:04:59;;;;;;;5.85;2.08;;;;;;;;;;5078305;28;21299;-67
2022/04/26 16:07:24;;;;;;;4.25;2.30;;;;;;;;;;5084197;28;20228;-67
2022/04/26 16:20:45;;;;;;;3.78;2.10;;;;;;;;;;5086151;28;20628;-68
2022/04/26 16:23:11;;;;;;;4.43;2.20;;;;;;;;;;5086950;28;20207;-67
2022/04/26 16:25:36;;;;;;;4.32;1.98;;;;;;;;;;5081773;28;20178;-68
2022/04/26 16:28:03;;;;;;;5.57;1.90;;;;;;;;;;5084910;28;20245;-66
2022/04/26 16:30:30;;;;;;;4.35;2.00;;;;;;;;;;5089021;28;20568;-66
2022/04/26 16:32:57;;;;;;;6.00;1.90;;;;;;;;;;5082527;28;20212;-65
2022/04/26 16:35:24;;;;;;;6.55;1.80;;;;;;;;;;5077985;28;20180;-66
2022/04/26 16:37:49;;;;;;;4.70;2.10;;;;;;;;;;5088951;28;20191;-67
2022/04/26 16:40:14;;;;;;;4.03;2.10;;;;;;;;;;5078311;28;20656;-67
2022/04/26 16:42:40;;;;;;;5.18;2.10;;;;;;;;;;5085328;28;20180;-67
2022/04/26 16:45:07;;;;;;;3.28;2.10;;;;;;;;;;5085960;28;20743;-67
2022/04/26 16:47:32;;;;;;;3.60;2.00;;;;;;;;;;5085573;28;20569;-67
2022/04/26 16:49:58;;;;;;;6.72;2.03;;;;;;;;;;5087840;28;20192;-67
2022/04/26 16:52:23;;;;;;;4.85;1.88;;;;;;;;;;5085286;28;20180;-67
2022/04/26 16:54:50;;;;;;;5.20;2.60;;;;;;;;;;5087007;28;20180;-68
2022/04/26 16:57:16;;;;;;;4.30;2.30;;;;;;;;;;5085241;28;20187;-65
2022/04/26 16:59:41;;;;;;;5.75;1.80;;;;;;;;;;5086655;28;20615;-67
2022/04/26 17:02:06;;;;;;;8.18;2.33;;;;;;;;;;5088415;28;20596;-65
2022/04/26 17:04:32;;;;;;;4.57;2.38;;;;;;;;;;5073467;28;20180;-66
2022/04/26 17:06:58;;;;;;;2.30;1.60;;;;;;;;;;5084719;28;20227;-67
2022/04/26 17:09:23;;;;;;;4.95;2.13;;;;;;;;;;5082573;28;20188;-65
2022/04/26 17:11:49;;;;;;;9.73;2.42;;;;;;;;;;5080793;28;20180;-66
2022/04/26 17:14:16;;;;;;;3.40;1.70;;;;;;;;;;5079673;28;20192;-65
2022/04/26 17:16:44;;;;;;;4.55;2.00;;;;;;;;;;5086144;28;20191;-66
2022/04/26 17:19:13;;;;;;;6.53;2.65;;;;;;;;;;5086307;28;20187;-66
2022/04/26 17:21:39;;;;;;;3.33;1.90;;;;;;;;;;5081419;28;20184;-66
2022/04/26 17:25:13;;;;;;;3.17;2.25;;;;;;;;;;5085185;28;20671;-67
2022/04/26 17:26:51;;;;;;;4.03;1.98;;;;;;;;;;5085592;28;20299;-66
2022/04/26 17:29:18;;;;;;;4.38;2.42;;;;;;;;;;5077898;28;20248;-67
2022/04/26 17:31:43;;;;;;;4.22;2.60;;;;;;;;;;5084851;28;20212;-66
2022/04/26 17:34:09;;;;;;;4.03;2.22;;;;;;;;;;5076223;28;20187;-66
2022/04/26 17:36:34;;;;;;;5.45;2.33;;;;;;;;;;5085388;28;20187;-67
2022/04/26 17:38:59;;;;;;;9.32;2.40;;;;;;;;;;5087717;28;20195;-66
2022/04/26 17:41:25;;;;;;;6.00;2.35;;;;;;;;;;5087902;28;20610;-67
2022/04/26 17:43:52;;;;;;;5.68;2.30;;;;;;;;;;5076937;28;20271;-66
2022/04/26 17:46:17;;;;;;;4.95;2.38;;;;;;;;;;5083937;28;20181;-67
2022/04/26 17:48:43;;;;;;;6.05;2.80;;;;;;;;;;5086497;28;20215;-66
2022/04/26 17:51:08;;;;;;;5.25;2.42;;;;;;;;;;5085782;28;20237;-66
2022/04/26 17:56:29;;;;;;;5.68;2.70;;;;;;;;;;5087235;28;20191;-67
2022/04/26 17:58:55;;;;;;;6.40;3.03;;;;;;;;;;5086667;28;20635;-66
2022/04/26 18:01:20;;;;;;;4.22;2.58;;;;;;;;;;5087882;28;20195;-67
2022/04/26 18:03:46;;;;;;;3.78;2.80;;;;;;;;;;5086876;28;20184;-68
2022/04/26 18:06:11;;;;;;;6.50;3.10;;;;;;;;;;5082619;28;20548;-66
2022/04/26 18:08:38;;;;;;;5.93;3.00;;;;;;;;;;5082592;28;20195;-66
2022/04/26 18:11:04;;;;;;;7.47;2.50;;;;;;;;;;5084414;28;20237;-66
2022/04/26 18:13:31;;;;;;;5.93;2.88;;;;;;;;;;5081364;28;20192;-66
2022/04/26 18:15:57;;;;;;;4.05;2.28;;;;;;;;;;5084689;28;20627;-66
2022/04/26 18:18:24;;;;;;;4.53;2.80;;;;;;;;;;5086637;28;20218;-66
2022/04/26 18:20:50;;;;;;;5.07;2.50;;;;;;;;;;5087071;28;20183;-66
2022/04/26 18:23:15;;;;;;;7.03;3.08;;;;;;;;;;5086285;28;20180;-66
2022/04/26 18:28:25;;;;;;;5.82;2.50;;;;;;;;;;5081641;28;20246;-66
2022/04/26 18:30:50;;;;;;;6.97;2.83;;;;;;;;;;5084666;28;20231;-67
2022/04/26 18:33:15;;;;;;;6.93;2.88;;;;;;;;;;5081399;28;20187;-67
2022/04/26 18:35:41;;;;;;;5.25;2.70;;;;;;;;;;5080882;28;20175;-67
2022/04/26 18:38:06;;;;;;;4.47;2.80;;;;;;;;;;5091262;28;20544;-66
2022/04/26 18:40:35;;;;;;;6.80;2.65;;;;;;;;;;5089559;28;20203;-67
2022/04/26 18:43:00;;;;;;;7.25;2.90;;;;;;;;;;5082227;28;20686;-67
2022/04/26 18:45:26;;;;;;;4.82;2.78;;;;;;;;;;5091490;28;20208;-67
2022/04/26 18:47:53;;;;;;;4.43;2.70;;;;;;;;;;5089283;28;20428;-67
2022/04/26 18:50:18;;;;;;;8.95;2.80;;;;;;;;;;5090726;28;20183;-67
2022/04/26 18:52:43;;;;;;;4.78;2.85;;;;;;;;;;5078660;28;20511;-67
2022/04/26 18:55:09;;;;;;;7.80;2.75;;;;;;;;;;5087785;28;20274;-67
2022/04/26 18:57:34;;;;;;;5.70;2.72;;;;;;;;;;5084975;28;20546;-67
2022/04/26 18:59:59;;;;;;;6.15;2.60;;;;;;;;;;5085077;28;20623;-67